createdAt,value
2023-05-18T00:00:39.450Z,0.00
2023-05-18T00:01:39.478Z,0.00
2023-05-18T00:03:39.869Z,0.00
2023-05-18T00:04:39.662Z,0.00
2023-05-18T00:05:39.601Z,0.00
2023-05-18T00:06:39.973Z,0.00
2023-05-18T00:07:39.673Z,0.00
2023-05-18T00:08:39.707Z,0.00
2023-05-18T00:10:39.760Z,0.00
2023-05-18T00:11:39.791Z,0.00
2023-05-18T00:12:39.821Z,0.00
2023-05-18T00:13:40.154Z,0.00
2023-05-18T00:14:39.877Z,0.00
2023-05-18T00:15:39.935Z,0.00
2023-05-18T00:16:40.186Z,0.00
2023-05-18T00:17:40.015Z,0.00
2023-05-18T00:18:40.035Z,0.00
2023-05-18T00:19:40.034Z,0.00
2023-05-18T00:20:40.378Z,0.00
2023-05-18T00:21:40.103Z,0.00
2023-05-18T00:22:40.158Z,0.00
2023-05-18T00:23:40.170Z,0.00
2023-05-18T00:24:40.192Z,0.00
2023-05-18T00:25:40.229Z,0.00
2023-05-18T00:26:40.250Z,0.00
2023-05-18T00:27:40.586Z,0.00
2023-05-18T00:28:40.309Z,0.00
2023-05-18T00:29:40.348Z,0.00
2023-05-18T00:30:40.378Z,0.00
2023-05-18T00:31:40.479Z,0.00
2023-05-18T00:32:40.457Z,0.00
2023-05-18T00:33:40.470Z,0.00
2023-05-18T00:34:40.814Z,0.00
2023-05-18T00:35:40.545Z,0.00
2023-05-18T00:36:40.569Z,0.00
2023-05-18T00:37:40.605Z,0.00
2023-05-18T00:38:40.656Z,0.00
2023-05-18T00:39:40.659Z,0.00
2023-05-18T00:40:40.689Z,0.00
2023-05-18T00:41:41.023Z,0.00
2023-05-18T00:42:40.762Z,0.00
2023-05-18T00:43:40.787Z,0.00
2023-05-18T00:44:40.869Z,0.00
2023-05-18T00:45:40.926Z,0.00
2023-05-18T00:46:40.875Z,0.00
2023-05-18T00:47:40.930Z,0.00
2023-05-18T00:48:41.238Z,0.00
2023-05-18T00:49:40.973Z,0.00
2023-05-18T00:51:41.042Z,0.00
2023-05-18T00:52:41.071Z,0.00
2023-05-18T00:53:43.983Z,0.00
2023-05-18T00:54:41.155Z,0.00
2023-05-18T00:55:41.461Z,0.00
2023-05-18T00:56:41.203Z,0.00
2023-05-18T00:57:41.224Z,0.00
2023-05-18T00:59:41.281Z,0.00
2023-05-18T01:00:41.310Z,0.00
2023-05-18T01:01:41.600Z,0.00
2023-05-18T01:02:41.506Z,0.00
2023-05-18T01:03:41.434Z,0.00
2023-05-18T01:04:41.453Z,0.00
2023-05-18T01:05:41.474Z,0.00
2023-05-18T01:06:41.496Z,0.00
2023-05-18T01:07:41.828Z,0.00
2023-05-18T01:08:41.562Z,0.00
2023-05-18T01:09:41.596Z,0.00
2023-05-18T01:11:41.805Z,0.00
2023-05-18T01:12:41.788Z,0.00
2023-05-18T01:13:42.016Z,0.00
2023-05-18T01:14:41.749Z,0.00
2023-05-18T01:16:41.838Z,0.00
2023-05-18T01:19:41.921Z,0.00
2023-05-18T01:20:42.229Z,0.00
2023-05-18T01:21:41.960Z,0.00
2023-05-18T01:22:41.989Z,0.00
2023-05-18T01:23:42.024Z,0.00
2023-05-18T01:24:42.057Z,0.00
2023-05-18T01:25:42.085Z,0.00
2023-05-18T01:26:42.120Z,0.00
2023-05-18T01:27:42.475Z,0.00
2023-05-18T01:28:42.181Z,0.00
2023-05-18T01:29:42.210Z,0.00
2023-05-18T01:30:42.272Z,0.00
2023-05-18T01:31:42.270Z,0.00
2023-05-18T01:32:42.392Z,0.00
2023-05-18T01:33:42.334Z,0.00
2023-05-18T01:34:42.663Z,0.00
2023-05-18T01:35:42.399Z,0.00
2023-05-18T01:36:42.431Z,0.00
2023-05-18T01:38:44.083Z,0.00
2023-05-18T01:39:42.521Z,0.00
2023-05-18T01:40:42.549Z,0.00
2023-05-18T01:41:42.883Z,0.00
2023-05-18T01:42:42.609Z,0.00
2023-05-18T01:43:42.662Z,0.00
2023-05-18T01:44:42.681Z,0.00
2023-05-18T01:45:42.727Z,0.00
2023-05-18T01:46:42.761Z,0.00
2023-05-18T01:47:42.763Z,0.00
2023-05-18T01:48:43.094Z,0.00
2023-05-18T01:50:42.856Z,0.00
2023-05-18T01:51:42.892Z,0.00
2023-05-18T01:52:42.916Z,0.00
2023-05-18T01:53:42.943Z,0.00
2023-05-18T01:55:43.007Z,0.00
2023-05-18T01:56:43.348Z,0.00
2023-05-18T01:57:43.068Z,0.00
2023-05-18T01:58:43.099Z,0.00
2023-05-18T01:59:43.157Z,0.00
2023-05-18T02:00:43.167Z,0.00
2023-05-18T02:01:43.224Z,0.00
2023-05-18T02:02:43.370Z,0.00
2023-05-18T02:03:43.679Z,0.00
2023-05-18T02:04:43.293Z,0.00
2023-05-18T02:05:43.322Z,0.00
2023-05-18T02:06:43.355Z,0.00
2023-05-18T02:07:43.387Z,0.00
2023-05-18T02:08:43.403Z,0.00
2023-05-18T02:09:43.435Z,0.00
2023-05-18T02:10:43.792Z,0.00
2023-05-18T02:11:43.509Z,0.00
2023-05-18T02:12:43.542Z,0.00
2023-05-18T02:14:43.590Z,0.00
2023-05-18T02:15:43.654Z,0.00
2023-05-18T02:16:43.740Z,0.00
2023-05-18T02:17:44.045Z,0.00
2023-05-18T02:18:43.750Z,0.00
2023-05-18T02:19:43.744Z,0.00
2023-05-18T02:20:43.768Z,0.00
2023-05-18T02:21:43.804Z,0.00
2023-05-18T02:22:43.828Z,0.00
2023-05-18T02:23:43.862Z,0.00
2023-05-18T02:24:44.192Z,0.00
2023-05-18T02:25:43.918Z,0.00
2023-05-18T02:26:43.949Z,0.00
2023-05-18T02:27:43.979Z,0.00
2023-05-18T02:28:44.010Z,0.00
2023-05-18T02:29:44.045Z,0.00
2023-05-18T02:30:44.075Z,0.00
2023-05-18T02:31:44.501Z,0.00
2023-05-18T02:32:44.154Z,0.00
2023-05-18T02:33:44.162Z,0.00
2023-05-18T02:34:44.191Z,0.00
2023-05-18T02:35:44.223Z,0.00
2023-05-18T02:36:44.256Z,0.00
2023-05-18T02:37:44.315Z,0.00
2023-05-18T02:38:44.617Z,0.00
2023-05-18T02:39:44.347Z,0.00
2023-05-18T02:40:44.424Z,0.00
2023-05-18T02:41:44.412Z,0.00
2023-05-18T02:42:44.438Z,0.00
2023-05-18T02:43:44.476Z,0.00
2023-05-18T02:44:44.510Z,0.00
2023-05-18T02:45:44.870Z,0.00
2023-05-18T02:46:44.558Z,0.00
2023-05-18T02:47:44.648Z,0.00
2023-05-18T02:48:44.624Z,0.00
2023-05-18T02:49:44.654Z,0.00
2023-05-18T02:51:44.715Z,0.00
2023-05-18T02:52:45.053Z,0.00
2023-05-18T02:53:44.791Z,0.00
2023-05-18T02:54:44.808Z,0.00
2023-05-18T02:55:44.837Z,0.00
2023-05-18T02:56:44.870Z,0.00
2023-05-18T02:57:44.896Z,0.00
2023-05-18T02:58:44.990Z,0.00
2023-05-18T02:59:45.262Z,0.00
2023-05-18T03:00:44.988Z,0.00
2023-05-18T03:01:45.107Z,0.00
2023-05-18T03:03:28.511Z,0.00
2023-05-18T03:04:28.474Z,0.00
2023-05-18T03:05:28.621Z,0.00
2023-05-18T03:07:28.589Z,0.00
2023-05-18T03:08:28.603Z,0.00
2023-05-18T03:09:28.930Z,4.00
2023-05-18T03:10:28.659Z,4.00
2023-05-18T03:11:28.689Z,4.00
2023-05-18T03:12:28.714Z,4.00
2023-05-18T03:13:28.755Z,0.00
2023-05-18T03:14:28.787Z,4.00
2023-05-18T03:15:29.053Z,4.00
2023-05-18T03:16:29.242Z,8.00
2023-05-18T03:17:29.090Z,4.00
2023-05-18T03:18:28.903Z,8.00
2023-05-18T03:20:28.991Z,8.00
2023-05-18T03:22:29.023Z,12.00
2023-05-18T03:23:29.310Z,16.00
2023-05-18T03:24:29.087Z,16.00
2023-05-18T03:25:29.428Z,16.00
2023-05-18T03:27:29.174Z,20.00
2023-05-18T03:28:29.246Z,24.00
2023-05-18T03:29:31.455Z,28.00
2023-05-18T03:30:29.473Z,32.00
2023-05-18T03:31:29.344Z,36.00
2023-05-18T03:32:29.348Z,40.00
2023-05-18T03:33:29.368Z,44.00
2023-05-18T03:34:29.394Z,48.00
2023-05-18T03:35:29.922Z,56.00
2023-05-18T03:37:29.553Z,64.00
2023-05-18T03:38:29.559Z,68.00
2023-05-18T03:39:29.566Z,76.00
2023-05-18T03:40:29.567Z,84.00
2023-05-18T03:41:29.942Z,92.00
2023-05-18T03:42:29.630Z,100.00
2023-05-18T03:43:29.690Z,108.00
2023-05-18T03:44:29.701Z,120.00
2023-05-18T03:45:29.830Z,128.00
2023-05-18T03:47:29.814Z,148.00
2023-05-18T03:48:30.113Z,156.00
2023-05-18T03:49:29.866Z,172.00
2023-05-18T03:50:29.890Z,184.00
2023-05-18T03:51:29.903Z,196.00
2023-05-18T03:52:29.950Z,208.00
2023-05-18T03:53:29.993Z,224.00
2023-05-18T03:54:30.003Z,236.00
2023-05-18T03:55:30.497Z,252.00
2023-05-18T03:56:30.055Z,268.00
2023-05-18T03:57:30.099Z,284.00
2023-05-18T03:58:30.133Z,300.00
2023-05-18T03:59:30.151Z,316.00
2023-05-18T04:00:30.195Z,336.00
2023-05-18T04:01:30.240Z,352.00
2023-05-18T04:02:30.623Z,368.00
2023-05-18T04:03:30.330Z,388.00
2023-05-18T04:04:30.302Z,400.00
2023-05-18T04:05:30.520Z,424.00
2023-05-18T04:07:30.390Z,456.00
2023-05-18T04:08:30.520Z,472.00
2023-05-18T04:09:30.774Z,488.00
2023-05-18T04:10:30.483Z,508.00
2023-05-18T04:11:30.515Z,528.00
2023-05-18T04:12:30.539Z,544.00
2023-05-18T04:14:30.630Z,584.00
2023-05-18T04:15:30.792Z,604.00
2023-05-18T04:16:30.712Z,620.00
2023-05-18T04:17:30.718Z,640.00
2023-05-18T04:18:30.757Z,660.00
2023-05-18T04:19:30.848Z,684.00
2023-05-18T04:21:30.820Z,724.00
2023-05-18T04:22:31.146Z,748.00
2023-05-18T04:23:30.925Z,768.00
2023-05-18T04:24:30.914Z,792.00
2023-05-18T04:26:30.989Z,832.00
2023-05-18T04:27:30.995Z,852.00
2023-05-18T04:28:31.024Z,868.00
2023-05-18T04:29:31.406Z,892.00
2023-05-18T04:30:31.108Z,912.00
2023-05-18T04:31:31.158Z,924.00
2023-05-18T04:32:31.285Z,944.00
2023-05-18T04:33:31.196Z,956.00
2023-05-18T04:34:31.207Z,972.00
2023-05-18T04:35:31.378Z,988.00
2023-05-18T04:37:31.569Z,1020.00
2023-05-18T04:38:31.328Z,1036.00
2023-05-18T04:39:31.366Z,1048.00
2023-05-18T04:40:31.393Z,1060.00
2023-05-18T04:41:31.414Z,1076.00
2023-05-18T04:42:31.481Z,1096.00
2023-05-18T04:43:31.478Z,1108.00
2023-05-18T04:44:31.806Z,1124.00
2023-05-18T04:45:31.765Z,1144.00
2023-05-18T04:46:31.615Z,1156.00
2023-05-18T04:47:31.644Z,1172.00
2023-05-18T04:49:31.660Z,1200.00
2023-05-18T04:50:31.702Z,1208.00
2023-05-18T04:51:32.023Z,1220.00
2023-05-18T04:52:31.753Z,1232.00
2023-05-18T04:53:31.786Z,1244.00
2023-05-18T04:54:31.839Z,1252.00
2023-05-18T04:55:31.971Z,1260.00
2023-05-18T04:56:31.890Z,1268.00
2023-05-18T04:59:32.289Z,1288.00
2023-05-18T05:00:31.996Z,1292.00
2023-05-18T05:01:32.084Z,1300.00
2023-05-18T05:02:32.117Z,1304.00
2023-05-18T05:03:32.165Z,1308.00
2023-05-18T05:04:32.114Z,1312.00
2023-05-18T05:05:32.339Z,1316.00
2023-05-18T05:06:32.486Z,1320.00
2023-05-18T05:07:32.205Z,1324.00
2023-05-18T05:08:32.235Z,1324.00
2023-05-18T05:09:32.260Z,1328.00
2023-05-18T05:10:32.295Z,1332.00
2023-05-18T05:12:32.360Z,1336.00
2023-05-18T05:13:32.702Z,1340.00
2023-05-18T05:14:32.515Z,1340.00
2023-05-18T05:15:32.894Z,1344.00
2023-05-18T05:17:32.592Z,1348.00
2023-05-18T05:18:32.532Z,1352.00
2023-05-18T05:19:32.591Z,1356.00
2023-05-18T05:20:32.896Z,1356.00
2023-05-18T05:21:32.636Z,1364.00
2023-05-18T05:22:32.670Z,1368.00
2023-05-18T05:23:32.709Z,1368.00
2023-05-18T05:24:32.728Z,1380.00
2023-05-18T05:25:33.125Z,1384.00
2023-05-18T05:26:32.784Z,1388.00
2023-05-18T05:27:33.106Z,1388.00
2023-05-18T05:28:32.833Z,1392.00
2023-05-18T05:29:32.871Z,1400.00
2023-05-18T05:30:32.894Z,1404.00
2023-05-18T05:31:32.987Z,1404.00
2023-05-18T05:32:32.989Z,1408.00
2023-05-18T05:33:32.993Z,1416.00
2023-05-18T05:34:33.281Z,1420.00
2023-05-18T05:35:34.117Z,1424.00
2023-05-18T05:36:33.087Z,1428.00
2023-05-18T05:37:33.140Z,1436.00
2023-05-18T05:38:33.244Z,1436.00
2023-05-18T05:39:33.167Z,1444.00
2023-05-18T05:40:33.200Z,1448.00
2023-05-18T05:41:33.242Z,1460.00
2023-05-18T05:43:33.291Z,1468.00
2023-05-18T05:44:33.355Z,1472.00
2023-05-18T05:46:33.400Z,1484.00
2023-05-18T05:47:33.818Z,1492.00
2023-05-18T05:50:33.525Z,1512.00
2023-05-18T05:51:33.531Z,1520.00
2023-05-18T05:52:33.566Z,1524.00
2023-05-18T05:53:33.908Z,1532.00
2023-05-18T05:54:33.628Z,1540.00
2023-05-18T05:55:33.767Z,1548.00
2023-05-18T05:56:33.690Z,1556.00
2023-05-18T05:57:33.820Z,1560.00
2023-05-18T05:58:33.749Z,1568.00
2023-05-18T05:59:34.077Z,1572.00
2023-05-18T06:00:33.814Z,1576.00
2023-05-18T06:01:33.898Z,1584.00
2023-05-18T06:02:33.947Z,1584.00
2023-05-18T06:04:34.048Z,1592.00
2023-05-18T06:05:34.093Z,1592.00
2023-05-18T06:06:34.295Z,1592.00
2023-05-18T06:07:34.028Z,1592.00
2023-05-18T06:08:34.156Z,1592.00
2023-05-18T06:10:34.130Z,1592.00
2023-05-18T06:11:34.141Z,1592.00
2023-05-18T06:12:34.172Z,1592.00
2023-05-18T06:13:34.511Z,1592.00
2023-05-18T06:14:34.257Z,1596.00
2023-05-18T06:15:34.266Z,1596.00
2023-05-18T06:18:34.437Z,1604.00
2023-05-18T06:19:34.396Z,1604.00
2023-05-18T06:20:34.791Z,1608.00
2023-05-18T06:21:34.445Z,1612.00
2023-05-18T06:23:34.522Z,1616.00
2023-05-18T06:24:34.540Z,1616.00
2023-05-18T06:25:34.570Z,1624.00
2023-05-18T06:26:34.623Z,1624.00
2023-05-18T06:27:34.940Z,1628.00
2023-05-18T06:28:34.665Z,1632.00
2023-05-18T06:29:34.698Z,1636.00
2023-05-18T06:30:34.720Z,1636.00
2023-05-18T06:33:34.818Z,1644.00
2023-05-18T06:34:35.148Z,1648.00
2023-05-18T06:35:34.877Z,1648.00
2023-05-18T06:37:34.964Z,1652.00
2023-05-18T06:39:35.144Z,1656.00
2023-05-18T06:41:35.314Z,1656.00
2023-05-18T06:42:35.097Z,1656.00
2023-05-18T06:44:35.163Z,1660.00
2023-05-18T06:45:37.053Z,1664.00
2023-05-18T06:46:35.343Z,1668.00
2023-05-18T06:47:35.302Z,1672.00
2023-05-18T06:48:35.529Z,1676.00
2023-05-18T06:49:35.321Z,1676.00
2023-05-18T06:50:35.340Z,1680.00
2023-05-18T06:51:35.367Z,1684.00
2023-05-18T06:52:35.398Z,1688.00
2023-05-18T06:53:35.489Z,1688.00
2023-05-18T06:54:35.457Z,1692.00
2023-05-18T06:55:35.831Z,1696.00
2023-05-18T06:57:35.557Z,1696.00
2023-05-18T06:58:35.581Z,1700.00
2023-05-18T07:00:35.655Z,1700.00
2023-05-18T07:01:35.747Z,1704.00
2023-05-18T07:03:36.082Z,1700.00
2023-05-18T07:04:35.774Z,1712.00
2023-05-18T07:05:39.215Z,1712.00
2023-05-18T07:06:35.830Z,1712.00
2023-05-18T07:07:35.883Z,1716.00
2023-05-18T07:08:35.898Z,1716.00
2023-05-18T07:10:36.298Z,1716.00
2023-05-18T07:11:35.991Z,1724.00
2023-05-18T07:12:36.010Z,1724.00
2023-05-18T07:14:36.083Z,1724.00
2023-05-18T07:15:36.178Z,1720.00
2023-05-18T07:16:36.201Z,1724.00
2023-05-18T07:18:36.238Z,1724.00
2023-05-18T07:19:36.230Z,1728.00
2023-05-18T07:20:36.262Z,1724.00
2023-05-18T07:21:36.286Z,1728.00
2023-05-18T07:22:36.319Z,1728.00
2023-05-18T07:23:36.645Z,1732.00
2023-05-18T07:24:36.378Z,1736.00
2023-05-18T07:25:36.419Z,1740.00
2023-05-18T07:26:36.476Z,1736.00
2023-05-18T07:27:36.468Z,1740.00
2023-05-18T07:28:36.514Z,1736.00
2023-05-18T07:29:36.541Z,1740.00
2023-05-18T07:30:36.865Z,1744.00
2023-05-18T07:32:36.667Z,1744.00
2023-05-18T07:33:38.536Z,1748.00
2023-05-18T07:34:36.705Z,1748.00
2023-05-18T07:35:36.777Z,1748.00
2023-05-18T07:36:37.074Z,1752.00
2023-05-18T07:37:36.784Z,1752.00
2023-05-18T07:38:36.812Z,1752.00
2023-05-18T07:39:36.847Z,1756.00
2023-05-18T07:40:36.872Z,1756.00
2023-05-18T07:41:36.906Z,1756.00
2023-05-18T07:42:36.984Z,1760.00
2023-05-18T07:43:36.983Z,1764.00
2023-05-18T07:44:37.017Z,1768.00
2023-05-18T07:45:37.048Z,1764.00
2023-05-18T07:46:37.085Z,1776.00
2023-05-18T07:47:37.192Z,1776.00
2023-05-18T07:48:39.676Z,1780.00
2023-05-18T07:50:37.198Z,1780.00
2023-05-18T07:51:37.238Z,1784.00
2023-05-18T07:52:37.260Z,1788.00
2023-05-18T07:53:37.290Z,1788.00
2023-05-18T07:54:37.368Z,1792.00
2023-05-18T07:55:37.639Z,1792.00
2023-05-18T07:56:37.374Z,1792.00
2023-05-18T07:57:37.459Z,1792.00
2023-05-18T08:01:37.651Z,1828.00
2023-05-18T08:02:38.129Z,1840.00
2023-05-18T08:03:37.929Z,1848.00
2023-05-18T08:04:37.614Z,1856.00
2023-05-18T08:05:37.650Z,1864.00
2023-05-18T08:06:37.714Z,1864.00
2023-05-18T08:07:37.725Z,1868.00
2023-05-18T08:09:38.095Z,1872.00
2023-05-18T08:10:37.806Z,1876.00
2023-05-18T08:11:37.855Z,1880.00
2023-05-18T08:12:37.878Z,1884.00
2023-05-18T08:13:37.909Z,1884.00
2023-05-18T08:14:37.929Z,1888.00
2023-05-18T08:15:37.978Z,1884.00
2023-05-18T08:16:38.300Z,1880.00
2023-05-18T08:18:38.171Z,1888.00
2023-05-18T08:19:39.829Z,1892.00
2023-05-18T08:20:38.117Z,1892.00
2023-05-18T08:21:38.168Z,1900.00
2023-05-18T08:22:38.190Z,1904.00
2023-05-18T08:24:38.544Z,1916.00
2023-05-18T08:25:38.279Z,1916.00
2023-05-18T08:26:38.308Z,1916.00
2023-05-18T08:27:38.338Z,1916.00
2023-05-18T08:28:38.375Z,1928.00
2023-05-18T08:29:38.447Z,1932.00
2023-05-18T08:30:38.437Z,1924.00
2023-05-18T08:31:38.827Z,1924.00
2023-05-18T08:32:38.687Z,1924.00
2023-05-18T08:33:38.533Z,1904.00
2023-05-18T08:34:38.596Z,1904.00
2023-05-18T08:35:38.598Z,1924.00
2023-05-18T08:36:38.624Z,1924.00
2023-05-18T08:37:38.644Z,1924.00
2023-05-18T08:38:38.998Z,1928.00
2023-05-18T08:39:38.763Z,1932.00
2023-05-18T08:40:38.744Z,1928.00
2023-05-18T08:41:38.772Z,1928.00
2023-05-18T08:42:49.342Z,1932.00
2023-05-18T08:43:38.831Z,1932.00
2023-05-18T08:44:38.875Z,1964.00
2023-05-18T08:45:39.187Z,2008.00
2023-05-18T08:46:38.914Z,1988.00
2023-05-18T08:47:39.048Z,1964.00
2023-05-18T08:48:39.027Z,1956.00
2023-05-18T08:49:39.008Z,1964.00
2023-05-18T08:50:39.068Z,1964.00
2023-05-18T08:51:39.077Z,1976.00
2023-05-18T08:52:39.441Z,1980.00
2023-05-18T08:53:39.159Z,1976.00
2023-05-18T08:54:39.174Z,1980.00
2023-05-18T08:55:39.203Z,1980.00
2023-05-18T08:56:39.271Z,1988.00
2023-05-18T08:57:39.266Z,2008.00
2023-05-18T08:58:39.316Z,2020.00
2023-05-18T09:00:39.409Z,2036.00
2023-05-18T09:01:39.478Z,2048.00
2023-05-18T09:02:39.455Z,2056.00
2023-05-18T09:03:39.488Z,2052.00
2023-05-18T09:04:39.539Z,2044.00
2023-05-18T09:05:39.517Z,2044.00
2023-05-18T09:06:39.866Z,2044.00
2023-05-18T09:07:39.574Z,2044.00
2023-05-18T09:08:39.627Z,2052.00
2023-05-18T09:11:39.710Z,2088.00
2023-05-18T09:12:39.732Z,2088.00
2023-05-18T09:13:40.064Z,2100.00
2023-05-18T09:14:39.811Z,1888.00
2023-05-18T09:15:39.892Z,1944.00
2023-05-18T09:16:39.898Z,2152.00
2023-05-18T09:17:39.953Z,2052.00
2023-05-18T09:18:39.939Z,2048.00
2023-05-18T09:19:39.963Z,2164.00
2023-05-18T09:20:40.282Z,2028.00
2023-05-18T09:21:40.032Z,1968.00
2023-05-18T09:22:40.072Z,2228.00
2023-05-18T09:23:40.074Z,2268.00
2023-05-18T09:24:40.134Z,2248.00
2023-05-18T09:25:40.187Z,2264.00
2023-05-18T09:26:40.168Z,2332.00
2023-05-18T09:27:40.497Z,2344.00
2023-05-18T09:28:40.234Z,2336.00
2023-05-18T09:29:40.284Z,2140.00
2023-05-18T09:30:40.340Z,2292.00
2023-05-18T09:31:40.362Z,2112.00
2023-05-18T09:32:40.402Z,2016.00
2023-05-18T09:33:40.529Z,2032.00
2023-05-18T09:34:40.731Z,2028.00
2023-05-18T09:35:40.568Z,2148.00
2023-05-18T09:36:40.529Z,2184.00
2023-05-18T09:37:40.549Z,2280.00
2023-05-18T09:38:40.618Z,2084.00
2023-05-18T09:39:40.581Z,2064.00
2023-05-18T09:40:40.723Z,2224.00
2023-05-18T09:41:40.956Z,2352.00
2023-05-18T09:42:40.834Z,2356.00
2023-05-18T09:43:40.759Z,2360.00
2023-05-18T09:44:40.756Z,2352.00
2023-05-18T09:45:40.770Z,2344.00
2023-05-18T09:46:40.859Z,2344.00
2023-05-18T09:47:40.869Z,2348.00
2023-05-18T09:48:41.192Z,2372.00
2023-05-18T09:49:41.027Z,2376.00
2023-05-18T09:50:40.941Z,2384.00
2023-05-18T09:51:41.045Z,2400.00
2023-05-18T09:52:40.992Z,2420.00
2023-05-18T09:53:41.027Z,2428.00
2023-05-18T09:54:41.379Z,2436.00
2023-05-18T09:55:41.115Z,2408.00
2023-05-18T09:56:41.122Z,2392.00
2023-05-18T09:57:41.157Z,2372.00
2023-05-18T09:58:41.197Z,2356.00
2023-05-18T09:59:41.225Z,2348.00
2023-05-18T10:00:41.595Z,2344.00
2023-05-18T10:01:41.305Z,2348.00
2023-05-18T10:02:41.390Z,2352.00
2023-05-18T10:03:41.361Z,2356.00
2023-05-18T10:05:41.403Z,2380.00
2023-05-18T10:06:41.765Z,2396.00
2023-05-18T10:07:41.481Z,2424.00
2023-05-18T10:11:41.625Z,2532.00
2023-05-18T10:12:41.650Z,2572.00
2023-05-18T10:13:42.008Z,2580.00
2023-05-18T10:14:41.768Z,2600.00
2023-05-18T10:15:41.749Z,2624.00
2023-05-18T10:16:41.812Z,2640.00
2023-05-18T10:18:41.852Z,2632.00
2023-05-18T10:19:41.958Z,2668.00
2023-05-18T10:20:42.191Z,2708.00
2023-05-18T10:21:42.016Z,2768.00
2023-05-18T10:22:41.969Z,2804.00
2023-05-18T10:23:41.993Z,2788.00
2023-05-18T10:24:42.017Z,2768.00
2023-05-18T10:25:42.049Z,2756.00
2023-05-18T10:26:42.093Z,2652.00
2023-05-18T10:27:42.144Z,2928.00
2023-05-18T10:28:42.169Z,2760.00
2023-05-18T10:29:42.211Z,2784.00
2023-05-18T10:30:42.239Z,2720.00
2023-05-18T10:31:42.242Z,2700.00
2023-05-18T10:32:42.292Z,2708.00
2023-05-18T10:33:42.656Z,2720.00
2023-05-18T10:34:42.334Z,2752.00
2023-05-18T10:35:42.368Z,2796.00
2023-05-18T10:36:42.448Z,2824.00
2023-05-18T10:38:42.466Z,2880.00
2023-05-18T10:39:42.494Z,2916.00
2023-05-18T10:40:42.831Z,2948.00
2023-05-18T10:41:42.563Z,2984.00
2023-05-18T10:42:42.589Z,3024.00
2023-05-18T10:43:42.710Z,3044.00
2023-05-18T10:44:42.663Z,3032.00
2023-05-18T10:45:42.696Z,2972.00
2023-05-18T10:46:42.838Z,2912.00
2023-05-18T10:47:43.207Z,2876.00
2023-05-18T10:48:42.808Z,2860.00
2023-05-18T10:49:42.823Z,2940.00
2023-05-18T10:50:42.854Z,2908.00
2023-05-18T10:51:42.888Z,3000.00
2023-05-18T10:52:42.924Z,3092.00
2023-05-18T10:53:42.955Z,3172.00
2023-05-18T10:54:43.287Z,3276.00
2023-05-18T10:55:43.006Z,3292.00
2023-05-18T10:56:43.047Z,3268.00
2023-05-18T10:57:43.091Z,3236.00
2023-05-18T10:58:43.167Z,3144.00
2023-05-18T10:59:44.382Z,3072.00
2023-05-18T11:00:43.170Z,3032.00
2023-05-18T11:01:43.567Z,2976.00
2023-05-18T11:02:43.396Z,2916.00
2023-05-18T11:03:43.266Z,2888.00
2023-05-18T11:04:43.330Z,2892.00
2023-05-18T11:05:43.346Z,2896.00
2023-05-18T11:06:43.363Z,2916.00
2023-05-18T11:07:43.407Z,2900.00
2023-05-18T11:08:43.425Z,2888.00
2023-05-18T11:09:43.458Z,2896.00
2023-05-18T11:10:43.486Z,2928.00
2023-05-18T11:11:43.530Z,2948.00
2023-05-18T11:12:43.580Z,2952.00
2023-05-18T11:13:43.629Z,2968.00
2023-05-18T11:14:43.622Z,3024.00
2023-05-18T11:15:43.691Z,3180.00
2023-05-18T11:16:43.807Z,3340.00
2023-05-18T11:17:43.736Z,3524.00
2023-05-18T11:18:43.792Z,3688.00
2023-05-18T11:19:43.789Z,3856.00
2023-05-18T11:20:44.114Z,3988.00
2023-05-18T11:21:43.854Z,4036.00
2023-05-18T11:22:43.876Z,3972.00
2023-05-18T11:23:43.917Z,3816.00
2023-05-18T11:24:43.940Z,3660.00
2023-05-18T11:25:43.980Z,3616.00
2023-05-18T11:26:44.018Z,3624.00
2023-05-18T11:27:44.034Z,3660.00
2023-05-18T11:28:44.111Z,3588.00
2023-05-18T11:30:44.136Z,3268.00
2023-05-18T11:32:44.590Z,3084.00
2023-05-18T11:33:44.282Z,3208.00
2023-05-18T11:34:44.269Z,3284.00
2023-05-18T11:35:44.301Z,3448.00
2023-05-18T11:36:44.335Z,3476.00
2023-05-18T11:37:44.418Z,3604.00
2023-05-18T11:38:44.398Z,3684.00
2023-05-18T11:41:44.566Z,3868.00
2023-05-18T11:42:44.523Z,3840.00
2023-05-18T11:43:44.557Z,3824.00
2023-05-18T11:44:44.594Z,3888.00
2023-05-18T11:45:44.630Z,4016.00
2023-05-18T11:46:44.959Z,4164.00
2023-05-18T11:47:44.785Z,4252.00
2023-05-18T11:48:44.897Z,4280.00
2023-05-18T11:49:44.761Z,4220.00
2023-05-18T11:50:44.786Z,4184.00
2023-05-18T11:51:44.822Z,3884.00
2023-05-18T11:52:44.853Z,3756.00
2023-05-18T11:53:44.880Z,3852.00
2023-05-18T11:54:44.963Z,3784.00
2023-05-18T11:55:44.946Z,3760.00
2023-05-18T11:56:44.984Z,3824.00
2023-05-18T11:57:45.016Z,3968.00
2023-05-18T11:58:45.039Z,4016.00
2023-05-18T11:59:45.377Z,3960.00
2023-05-18T12:00:45.157Z,3992.00
2023-05-18T12:01:45.254Z,4012.00
2023-05-18T12:02:45.577Z,3980.00
2023-05-18T12:03:47.797Z,3824.00
2023-05-18T12:04:45.304Z,3768.00
2023-05-18T12:05:45.577Z,3808.00
2023-05-18T12:06:45.297Z,3892.00
2023-05-18T12:07:45.362Z,4024.00
2023-05-18T12:08:45.365Z,4324.00
2023-05-18T12:09:45.402Z,4696.00
2023-05-18T12:10:45.455Z,4992.00
2023-05-18T12:11:45.762Z,5068.00
2023-05-18T12:12:45.511Z,4840.00
2023-05-18T12:13:45.543Z,4812.00
2023-05-18T12:15:45.613Z,5132.00
2023-05-18T12:16:45.711Z,4860.00
2023-05-18T12:17:46.006Z,4432.00
2023-05-18T12:18:45.726Z,4200.00
2023-05-18T12:19:45.720Z,4032.00
2023-05-18T12:20:45.818Z,3804.00
2023-05-18T12:21:45.798Z,3868.00
2023-05-18T12:22:45.829Z,3844.00
2023-05-18T12:23:45.856Z,3928.00
2023-05-18T12:24:46.141Z,3788.00
2023-05-18T12:25:45.977Z,4064.00
2023-05-18T12:26:45.949Z,4156.00
2023-05-18T12:27:46.048Z,4216.00
2023-05-18T12:28:46.017Z,4260.00
2023-05-18T12:29:46.051Z,4300.00
2023-05-18T12:30:46.106Z,4400.00
2023-05-18T12:31:46.127Z,4472.00
2023-05-18T12:32:46.262Z,4548.00
2023-05-18T12:34:46.216Z,4808.00
2023-05-18T12:35:46.251Z,4960.00
2023-05-18T12:36:46.306Z,5144.00
2023-05-18T12:37:46.662Z,5200.00
2023-05-18T12:38:46.367Z,5104.00
2023-05-18T12:39:46.378Z,4996.00
2023-05-18T12:40:46.438Z,4812.00
2023-05-18T12:41:46.757Z,4360.00
2023-05-18T12:42:46.483Z,4208.00
2023-05-18T12:43:46.524Z,4276.00
2023-05-18T12:44:46.565Z,4236.00
2023-05-18T12:45:46.595Z,4808.00
2023-05-18T12:46:46.675Z,5152.00
2023-05-18T12:47:46.748Z,5264.00
2023-05-18T12:48:46.679Z,5268.00
2023-05-18T12:50:47.092Z,5144.00
2023-05-18T12:51:46.773Z,4628.00
2023-05-18T12:52:46.829Z,4244.00
2023-05-18T12:53:46.842Z,4220.00
2023-05-18T12:54:46.873Z,3908.00
2023-05-18T12:55:46.904Z,3932.00
2023-05-18T12:56:47.237Z,3968.00
2023-05-18T12:57:46.995Z,4012.00
2023-05-18T12:58:47.013Z,4056.00
2023-05-18T12:59:47.051Z,4104.00
2023-05-18T13:00:47.066Z,4180.00
2023-05-18T13:01:47.263Z,4300.00
2023-05-18T13:02:47.436Z,4448.00
2023-05-18T13:03:47.253Z,4608.00
2023-05-18T13:04:47.250Z,4844.00
2023-05-18T13:05:47.240Z,5040.00
2023-05-18T13:06:47.266Z,5180.00
2023-05-18T13:07:47.299Z,5332.00
2023-05-18T13:08:47.680Z,5552.00
2023-05-18T13:09:47.364Z,5508.00
2023-05-18T13:11:47.464Z,5332.00
2023-05-18T13:12:47.469Z,5208.00
2023-05-18T13:13:47.519Z,5156.00
2023-05-18T13:14:47.533Z,4976.00
2023-05-18T13:15:47.868Z,4396.00
2023-05-18T13:16:47.650Z,4248.00
2023-05-18T13:17:47.659Z,4192.00
2023-05-18T13:18:47.784Z,4800.00
2023-05-18T13:19:48.031Z,4832.00
2023-05-18T13:20:47.845Z,4348.00
2023-05-18T13:21:47.803Z,4884.00
2023-05-18T13:22:48.222Z,4716.00
2023-05-18T13:23:47.827Z,4840.00
2023-05-18T13:24:47.898Z,4708.00
2023-05-18T13:25:47.904Z,4664.00
2023-05-18T13:26:47.934Z,4672.00
2023-05-18T13:27:47.972Z,4780.00
2023-05-18T13:28:48.047Z,5096.00
2023-05-18T13:29:48.282Z,5488.00
2023-05-18T13:30:48.061Z,5816.00
2023-05-18T13:31:48.174Z,5940.00
2023-05-18T13:32:48.145Z,5936.00
2023-05-18T13:33:48.177Z,5968.00
2023-05-18T13:34:48.697Z,6228.00
2023-05-18T13:35:48.228Z,6280.00
2023-05-18T13:36:48.560Z,6176.00
2023-05-18T13:37:48.288Z,5840.00
2023-05-18T13:40:48.423Z,5704.00
2023-05-18T13:41:48.447Z,5676.00
2023-05-18T13:42:48.458Z,5448.00
2023-05-18T13:43:48.791Z,5280.00